Terminal Aerodrome Forecast
Issued by NWS Atlanta, GA

Home | Current Version | Previous Version | Text Only | Print | Product List | Glossary On
Versions: 1 2 3 4 5 6 7 8 9 10 11 12 13 14 15 16 17 18 19 20 21 22 23 24 25 26 27 28 29 30 31
000
FTUS42 KFFC 301700 RRA
TAFAHN
TAF
KAHN 301741Z 3018/3118 14005KT P6SM VCSH SCT040 BKN070
      TEMPO 3020/3024 6SM -TSRA BR BKN025CB
     FM310200 00000KT P6SM SCT035 BKN100
     FM311000 00000KT 4SM BR SCT100
     FM311400 VRB03KT P6SM SCT025=

USA.gov is the U.S. government's official web portal to all federal, state and local government web resources and services.